Hauptseite
METAR-TAF:

METAR-TAF

Flughäfen :

Tarvisio, Italien

Breite: 46-30N, Länge: 013-35E, Höhe: 777 m

Beobachtung

Neuester Wetterbericht von vor 6 Stunden und 27 Minuten, um 13:55 UTC
Wind 2 kt aus West
Temperatur 15°C
Luftfeuchtigkeit 82%
Luftdruck 1008 hPa
Sichtweite 10 km oder mehr
Aufgelockert bewölkt in der Höhe von 3500 ft
Durchbrochene Bewölkung in der Höhe von 5000 ft

METAR: LIVO 301355Z 27002KT 9999 SCT035 BKN050 15/12 Q1008 RMK BKN VIS MIN 9999

Zeit: 22:22 (20:22 UTC)


TAF: fehlend

Wetterbeobachtungen und Prognosen von mehr als 4000 Flughäfen (METAR und TAF Bericht).

Die verfügbaren Stationen werden durch gelbe und rote Markierungen auf der Karte dargestellt.

Führen Sie die Maus auf sie, um den Namen der Station zu sehen.

Darauf klicken, um die Beobachtung von Wetterbeobachtungen und Prognosen zu sehen.

Um die Karte zu ändern : klicken Sie auf den grünen Tasten mit einem schwarzen Kreuz Zum Vergrößern, auf den grünen Button mit einem Gedankenstrich zu verkleinern, oder auf die grünen Pfeile für benachbarte Karten.


METAR-TAF: